Tümü
The Vale Airport (Tasmania) YVAL Hava Durumu
There is no TAF data available at YVAL. Showing TAF data for YDPO (20 mi KD).
DPO Terminal Alanı Tahmini (YVAL için veri yok)
| Here is the undecoded forecast: 2026/08/31 13:14 YDPO 311314Z 3114/0102 30014KT CAVOK FM311500 30008KT 9999 SCT008 BECMG 3118/3119 VRB03KT 9999 SCT008 BKN012 FM010000 32015G25KT 9999 FEW012 TEMPO 3118/0100 9999 BKN008 PROB30 3118/3123 0300 FG RMK T 09 09 08 11 Q 1023 1020 1018 1016 |
There is no METAR data available at YVAL. Showing METAR data for YDPO (20 mi KD).
Yakın zamandaki DPO METAR geçmişi (YVAL verisi yok)
| Date | Time (AEST) | Flight Rules | Wind Dir. | Speed | Type | Height AGL (ft) | Visibility | Temp (°C) | Temp (°F) | Dew Point (°C) | Dew Point (°F) | Rel. Humid. | Pressure | Density Altitude | Remarks |
|---|---|---|---|---|---|---|---|---|---|---|---|---|---|---|---|
| 01-Eyl | 00:00 | VFR | 280° | 6 kt | 10000 meters | 9° | 48° | 8° | 46° | 93% | 1023 mb | -976 ft | |||
| 31-Ağu | 23:00 | VFR | 290° | 13 kt | 10000 meters | 11° | 51° | 8° | 46° | 82% | 1023 mb | -736 ft | |||
| 31-Ağu | 22:00 | VFR | 240° | 5 kt | 10000 meters | 9° | 48° | 8° | 46° | 93% | 1024 mb | -1.006 ft | |||
| 31-Ağu | 21:00 | VFR | 270° | 8 kt | 10000 meters | 10° | 50° | 8° | 46° | 87% | 1024 mb | -886 ft | |||
| 31-Ağu | 20:00 | VFR | 290° | 17 kt | 10000 meters | 12° | 53° | 9° | 48° | 82% | 1024 mb | -646 ft | |||
| 31-Ağu | 19:00 | VFR | 300° | 16 kt | 10000 meters | 12° | 53° | 10° | 50° | 88% | 1024 mb | -646 ft | |||
| 31-Ağu | 18:00 | VFR | 300° | 18 kt | 10000 meters | 12° | 53° | 10° | 50° | 88% | 1024 mb | -646 ft | |||
| 31-Ağu | 17:00 | VFR | 300° | 20 kt | 10000 meters | 13° | 55° | 10° | 50° | 82% | 1024 mb | -526 ft | |||
| 31-Ağu | 16:00 | VFR | 300° | 18 kt | 10000 meters | 14° | 57° | 10° | 50° | 77% | 1025 mb | -435 ft | |||
| 31-Ağu | 15:00 | VFR | 300° | 17 kt | 10000 meters | 14° | 57° | 10° | 50° | 77% | 1025 mb | -435 ft | |||
| 31-Ağu | 14:00 | VFR | 300° | 17 kt | 10000 meters | 14° | 57° | 10° | 50° | 77% | 1026 mb | -465 ft | |||
| 31-Ağu | 13:00 | VFR | 300° | 16 kt | 10000 meters | 14° | 57° | 10° | 50° | 77% | 1026 mb | -465 ft | |||
| 31-Ağu | 12:00 | VFR | 320° | 12 kt | 10000 meters | 14° | 57° | 10° | 50° | 77% | 1027 mb | -494 ft | |||
| 31-Ağu | 11:00 | VFR | 310° | 14 kt | 10000 meters | 14° | 57° | 9° | 48° | 72% | 1028 mb | -524 ft | |||
| 31-Ağu | 10:00 | VFR | 300° | 11 kt | 10000 meters | 13° | 55° | 9° | 48° | 77% | 1028 mb | -644 ft | |||
| 31-Ağu | 09:00 | VFR | 290° | 11 kt | 10000 meters | 11° | 51° | 7° | 44° | 76% | 1028 mb | -884 ft | |||
| 31-Ağu | 08:00 | VFR | 260° | 5 kt | 10000 meters | 9° | 48° | 6° | 42° | 81% | 1028 mb | -1.124 ft | |||
| 31-Ağu | 07:00 | VFR | 260° | 6 kt | 10000 meters | 7° | 44° | 4° | 39° | 81% | 1028 mb | -1.364 ft | |||
| 31-Ağu | 06:00 | VFR | 270° | 12 kt | 10000 meters | 8° | 46° | 5° | 41° | 81% | 1027 mb | -1.214 ft | |||
| 31-Ağu | 05:00 | VFR | 270° | 8 kt | 10000 meters | 6° | 42° | 4° | 39° | 87% | 1027 mb | -1.454 ft | |||
| 31-Ağu | 04:00 | VFR | 240° | 7 kt | 10000 meters | 8° | 46° | 4° | 39° | 76% | 1027 mb | -1.214 ft | |||
| 31-Ağu | 03:00 | VFR | 280° | 11 kt | 10000 meters | 8° | 46° | 5° | 41° | 81% | 1027 mb | -1.214 ft | |||
| 31-Ağu | 02:00 | VFR | 260° | 8 kt | 10000 meters | 7° | 44° | 4° | 39° | 81% | 1028 mb | -1.364 ft | |||
| 31-Ağu | 01:00 | VFR | 280° | 14 kt | 10000 meters | 10° | 50° | 5° | 41° | 71% | 1027 mb | -974 ft |
Giriş
| Tarayıcınız desteklenmiyor. tarayıcınızı yükseltin |
